sensor_id;sensor_type;location;lat;lon;timestamp;temperature;humidity
42833;DHT22;64089;51.478;5.692;2023-02-12T00:01:19;8.10;99.90
42833;DHT22;64089;51.478;5.692;2023-02-12T00:03:46;8.10;99.90
42833;DHT22;64089;51.478;5.692;2023-02-12T00:06:11;8.10;99.90
42833;DHT22;64089;51.478;5.692;2023-02-12T00:08:38;8.10;99.90
42833;DHT22;64089;51.478;5.692;2023-02-12T00:11:15;8.10;99.90
42833;DHT22;64089;51.478;5.692;2023-02-12T00:13:41;8.10;99.90
42833;DHT22;64089;51.478;5.692;2023-02-12T00:16:13;8.00;99.90
42833;DHT22;64089;51.478;5.692;2023-02-12T00:18:39;8.00;99.90
42833;DHT22;64089;51.478;5.692;2023-02-12T00:21:05;8.00;99.90
42833;DHT22;64089;51.478;5.692;2023-02-12T00:23:33;8.00;99.90
42833;DHT22;64089;51.478;5.692;2023-02-12T00:25:59;8.00;99.90
42833;DHT22;64089;51.478;5.692;2023-02-12T00:28:25;8.00;99.90
42833;DHT22;64089;51.478;5.692;2023-02-12T00:30:50;7.90;99.90
42833;DHT22;64089;51.478;5.692;2023-02-12T00:33:16;7.90;99.90
42833;DHT22;64089;51.478;5.692;2023-02-12T00:35:42;7.90;99.90
42833;DHT22;64089;51.478;5.692;2023-02-12T00:38:07;7.90;99.90
42833;DHT22;64089;51.478;5.692;2023-02-12T00:40:33;7.90;99.90
42833;DHT22;64089;51.478;5.692;2023-02-12T00:42:58;7.80;99.90
42833;DHT22;64089;51.478;5.692;2023-02-12T00:45:24;7.80;99.90
42833;DHT22;64089;51.478;5.692;2023-02-12T00:47:49;7.80;99.90
42833;DHT22;64089;51.478;5.692;2023-02-12T00:50:15;7.80;99.90
42833;DHT22;64089;51.478;5.692;2023-02-12T00:52:41;7.80;99.90
42833;DHT22;64089;51.478;5.692;2023-02-12T00:55:06;7.80;99.90
42833;DHT22;64089;51.478;5.692;2023-02-12T00:57:32;7.80;99.90
42833;DHT22;64089;51.478;5.692;2023-02-12T00:59:58;7.80;99.90
42833;DHT22;64089;51.478;5.692;2023-02-12T01:02:24;7.80;99.90
42833;DHT22;64089;51.478;5.692;2023-02-12T01:04:50;7.80;99.90
42833;DHT22;64089;51.478;5.692;2023-02-12T01:07:15;7.80;99.90
42833;DHT22;64089;51.478;5.692;2023-02-12T01:09:41;7.70;99.90
42833;DHT22;64089;51.478;5.692;2023-02-12T01:12:07;7.80;99.90
42833;DHT22;64089;51.478;5.692;2023-02-12T01:14:33;7.80;99.90
42833;DHT22;64089;51.478;5.692;2023-02-12T01:16:58;7.80;99.90
42833;DHT22;64089;51.478;5.692;2023-02-12T01:19:24;7.80;99.90
42833;DHT22;64089;51.478;5.692;2023-02-12T01:21:50;7.80;99.90
42833;DHT22;64089;51.478;5.692;2023-02-12T01:24:15;7.70;99.90
42833;DHT22;64089;51.478;5.692;2023-02-12T01:26:41;7.70;99.90
42833;DHT22;64089;51.478;5.692;2023-02-12T01:29:07;7.70;99.90
42833;DHT22;64089;51.478;5.692;2023-02-12T01:31:36;7.70;99.90
42833;DHT22;64089;51.478;5.692;2023-02-12T01:34:03;7.70;99.90
42833;DHT22;64089;51.478;5.692;2023-02-12T01:36:29;7.60;99.90
42833;DHT22;64089;51.478;5.692;2023-02-12T01:38:55;7.60;99.90
42833;DHT22;64089;51.478;5.692;2023-02-12T01:41:31;7.60;99.90
42833;DHT22;64089;51.478;5.692;2023-02-12T01:44:24;7.60;99.90
42833;DHT22;64089;51.478;5.692;2023-02-12T01:46:58;7.60;99.90
42833;DHT22;64089;51.478;5.692;2023-02-12T01:49:34;7.60;99.90
42833;DHT22;64089;51.478;5.692;2023-02-12T01:52:13;7.60;99.90
42833;DHT22;64089;51.478;5.692;2023-02-12T01:54:40;7.60;99.90
42833;DHT22;64089;51.478;5.692;2023-02-12T01:57:08;7.60;99.90
42833;DHT22;64089;51.478;5.692;2023-02-12T01:59:37;7.60;99.90
42833;DHT22;64089;51.478;5.692;2023-02-12T02:02:04;7.50;99.90
42833;DHT22;64089;51.478;5.692;2023-02-12T02:04:41;7.50;99.90
42833;DHT22;64089;51.478;5.692;2023-02-12T02:07:09;7.50;99.90
42833;DHT22;64089;51.478;5.692;2023-02-12T02:09:40;7.50;99.90
42833;DHT22;64089;51.478;5.692;2023-02-12T02:12:07;7.50;99.90
42833;DHT22;64089;51.478;5.692;2023-02-12T02:14:54;7.50;99.90
42833;DHT22;64089;51.478;5.692;2023-02-12T02:22:59;7.50;99.90
42833;DHT22;64089;51.478;5.692;2023-02-12T02:31:03;7.50;99.90
42833;DHT22;64089;51.478;5.692;2023-02-12T02:33:50;7.50;99.90
42833;DHT22;64089;51.478;5.692;2023-02-12T02:41:58;7.50;99.90
42833;DHT22;64089;51.478;5.692;2023-02-12T02:44:37;7.40;99.90
42833;DHT22;64089;51.478;5.692;2023-02-12T02:47:07;7.40;99.90
42833;DHT22;64089;51.478;5.692;2023-02-12T02:49:43;7.40;99.90
42833;DHT22;64089;51.478;5.692;2023-02-12T02:52:23;7.40;99.90
42833;DHT22;64089;51.478;5.692;2023-02-12T02:54:55;7.40;99.90
42833;DHT22;64089;51.478;5.692;2023-02-12T02:57:29;7.40;99.90
42833;DHT22;64089;51.478;5.692;2023-02-12T03:00:03;7.40;99.90
42833;DHT22;64089;51.478;5.692;2023-02-12T03:02:35;7.40;99.90
42833;DHT22;64089;51.478;5.692;2023-02-12T03:05:30;7.40;99.90
42833;DHT22;64089;51.478;5.692;2023-02-12T03:08:06;7.40;99.90
42833;DHT22;64089;51.478;5.692;2023-02-12T03:10:41;7.30;99.90
42833;DHT22;64089;51.478;5.692;2023-02-12T03:13:22;7.30;99.90
42833;DHT22;64089;51.478;5.692;2023-02-12T03:18:35;7.40;99.90
42833;DHT22;64089;51.478;5.692;2023-02-12T03:21:13;7.30;99.90
42833;DHT22;64089;51.478;5.692;2023-02-12T03:23:50;7.30;99.90
42833;DHT22;64089;51.478;5.692;2023-02-12T03:26:23;7.40;99.90
42833;DHT22;64089;51.478;5.692;2023-02-12T03:28:50;7.30;99.90
42833;DHT22;64089;51.478;5.692;2023-02-12T03:36:32;7.30;99.90
42833;DHT22;64089;51.478;5.692;2023-02-12T03:41:51;7.30;99.90
42833;DHT22;64089;51.478;5.692;2023-02-12T03:52:34;7.30;99.90
42833;DHT22;64089;51.478;5.692;2023-02-12T03:55:01;7.30;99.90
42833;DHT22;64089;51.478;5.692;2023-02-12T03:57:31;7.30;99.90
42833;DHT22;64089;51.478;5.692;2023-02-12T04:00:07;7.30;99.90
42833;DHT22;64089;51.478;5.692;2023-02-12T04:02:33;7.30;99.90
42833;DHT22;64089;51.478;5.692;2023-02-12T04:05:19;7.30;99.90
42833;DHT22;64089;51.478;5.692;2023-02-12T04:07:45;7.30;99.90
42833;DHT22;64089;51.478;5.692;2023-02-12T04:10:11;7.30;99.90
42833;DHT22;64089;51.478;5.692;2023-02-12T04:13:06;7.30;99.90
42833;DHT22;64089;51.478;5.692;2023-02-12T04:16:16;7.30;99.90
42833;DHT22;64089;51.478;5.692;2023-02-12T04:18:46;7.20;99.90
42833;DHT22;64089;51.478;5.692;2023-02-12T04:21:26;7.20;99.90
42833;DHT22;64089;51.478;5.692;2023-02-12T04:32:19;7.20;99.90
42833;DHT22;64089;51.478;5.692;2023-02-12T04:34:46;7.20;99.90
42833;DHT22;64089;51.478;5.692;2023-02-12T04:37:27;7.20;99.90
42833;DHT22;64089;51.478;5.692;2023-02-12T04:39:53;7.20;99.90
42833;DHT22;64089;51.478;5.692;2023-02-12T04:42:20;7.20;99.90
42833;DHT22;64089;51.478;5.692;2023-02-12T04:44:46;7.20;99.90
42833;DHT22;64089;51.478;5.692;2023-02-12T04:47:13;7.20;99.90
42833;DHT22;64089;51.478;5.692;2023-02-12T04:49:39;7.20;99.90
42833;DHT22;64089;51.478;5.692;2023-02-12T04:52:04;7.20;99.90
42833;DHT22;64089;51.478;5.692;2023-02-12T04:54:36;7.30;99.90
42833;DHT22;64089;51.478;5.692;2023-02-12T04:57:02;7.20;99.90
42833;DHT22;64089;51.478;5.692;2023-02-12T04:59:28;7.20;99.90
42833;DHT22;64089;51.478;5.692;2023-02-12T05:01:53;7.20;99.90
42833;DHT22;64089;51.478;5.692;2023-02-12T05:04:22;7.20;99.90
42833;DHT22;64089;51.478;5.692;2023-02-12T05:06:48;7.20;99.90
42833;DHT22;64089;51.478;5.692;2023-02-12T05:09:16;7.20;99.90
42833;DHT22;64089;51.478;5.692;2023-02-12T05:11:43;7.30;99.90
42833;DHT22;64089;51.478;5.692;2023-02-12T05:14:08;7.20;99.90
42833;DHT22;64089;51.478;5.692;2023-02-12T05:16:34;7.30;99.90
42833;DHT22;64089;51.478;5.692;2023-02-12T05:18:59;7.20;99.90
42833;DHT22;64089;51.478;5.692;2023-02-12T05:21:25;7.20;99.90
42833;DHT22;64089;51.478;5.692;2023-02-12T05:23:51;7.20;99.90
42833;DHT22;64089;51.478;5.692;2023-02-12T05:26:18;7.20;99.90
42833;DHT22;64089;51.478;5.692;2023-02-12T05:28:44;7.20;99.90
42833;DHT22;64089;51.478;5.692;2023-02-12T05:31:13;7.20;99.90
42833;DHT22;64089;51.478;5.692;2023-02-12T05:33:42;7.20;99.90
42833;DHT22;64089;51.478;5.692;2023-02-12T05:36:12;7.20;99.90
42833;DHT22;64089;51.478;5.692;2023-02-12T05:38:38;7.20;99.90
42833;DHT22;64089;51.478;5.692;2023-02-12T05:41:07;7.20;99.90
42833;DHT22;64089;51.478;5.692;2023-02-12T05:43:33;7.20;99.90
42833;DHT22;64089;51.478;5.692;2023-02-12T05:45:59;7.20;99.90
42833;DHT22;64089;51.478;5.692;2023-02-12T05:48:26;7.10;99.90
42833;DHT22;64089;51.478;5.692;2023-02-12T05:50:52;7.10;99.90
42833;DHT22;64089;51.478;5.692;2023-02-12T05:53:17;7.10;99.90
42833;DHT22;64089;51.478;5.692;2023-02-12T05:55:43;7.10;99.90
42833;DHT22;64089;51.478;5.692;2023-02-12T05:58:09;7.10;99.90
42833;DHT22;64089;51.478;5.692;2023-02-12T06:00:34;7.10;99.90
42833;DHT22;64089;51.478;5.692;2023-02-12T06:03:00;7.00;99.90
42833;DHT22;64089;51.478;5.692;2023-02-12T06:05:25;7.00;99.90
42833;DHT22;64089;51.478;5.692;2023-02-12T06:07:51;7.10;99.90
42833;DHT22;64089;51.478;5.692;2023-02-12T06:10:17;7.10;99.90
42833;DHT22;64089;51.478;5.692;2023-02-12T06:12:42;7.10;99.90
42833;DHT22;64089;51.478;5.692;2023-02-12T06:15:08;7.10;99.90
42833;DHT22;64089;51.478;5.692;2023-02-12T06:17:34;7.10;99.90
42833;DHT22;64089;51.478;5.692;2023-02-12T06:19:59;7.10;99.90
42833;DHT22;64089;51.478;5.692;2023-02-12T06:22:27;7.20;99.90
42833;DHT22;64089;51.478;5.692;2023-02-12T06:24:52;7.10;99.90
42833;DHT22;64089;51.478;5.692;2023-02-12T06:27:18;7.10;99.90
42833;DHT22;64089;51.478;5.692;2023-02-12T06:29:44;7.10;99.90
42833;DHT22;64089;51.478;5.692;2023-02-12T06:32:10;7.10;99.90
42833;DHT22;64089;51.478;5.692;2023-02-12T06:34:38;7.10;99.90
42833;DHT22;64089;51.478;5.692;2023-02-12T06:37:04;7.20;99.90
42833;DHT22;64089;51.478;5.692;2023-02-12T06:39:29;7.20;99.90
42833;DHT22;64089;51.478;5.692;2023-02-12T06:41:55;7.20;99.90
42833;DHT22;64089;51.478;5.692;2023-02-12T06:44:20;7.10;99.90
42833;DHT22;64089;51.478;5.692;2023-02-12T06:46:46;7.10;99.90
42833;DHT22;64089;51.478;5.692;2023-02-12T06:49:12;7.10;99.90
42833;DHT22;64089;51.478;5.692;2023-02-12T06:51:39;7.10;99.90
42833;DHT22;64089;51.478;5.692;2023-02-12T06:54:16;7.10;99.90
42833;DHT22;64089;51.478;5.692;2023-02-12T06:56:41;7.10;99.90
42833;DHT22;64089;51.478;5.692;2023-02-12T06:59:12;7.10;99.90
42833;DHT22;64089;51.478;5.692;2023-02-12T07:01:38;7.20;99.90
42833;DHT22;64089;51.478;5.692;2023-02-12T07:04:04;7.20;99.90
42833;DHT22;64089;51.478;5.692;2023-02-12T07:06:32;7.20;99.90
42833;DHT22;64089;51.478;5.692;2023-02-12T07:08:58;7.20;99.90
42833;DHT22;64089;51.478;5.692;2023-02-12T07:11:25;7.10;99.90
42833;DHT22;64089;51.478;5.692;2023-02-12T07:13:51;7.10;99.90
42833;DHT22;64089;51.478;5.692;2023-02-12T07:16:17;7.00;99.90
42833;DHT22;64089;51.478;5.692;2023-02-12T07:18:43;7.10;99.90
42833;DHT22;64089;51.478;5.692;2023-02-12T07:21:11;7.10;99.90
42833;DHT22;64089;51.478;5.692;2023-02-12T07:23:37;7.10;99.90
42833;DHT22;64089;51.478;5.692;2023-02-12T07:26:09;7.10;99.90
42833;DHT22;64089;51.478;5.692;2023-02-12T07:28:35;7.10;99.90
42833;DHT22;64089;51.478;5.692;2023-02-12T07:31:13;7.10;99.90
42833;DHT22;64089;51.478;5.692;2023-02-12T07:33:40;7.20;99.90
42833;DHT22;64089;51.478;5.692;2023-02-12T07:36:08;7.20;99.90
42833;DHT22;64089;51.478;5.692;2023-02-12T07:38:35;7.20;99.90
42833;DHT22;64089;51.478;5.692;2023-02-12T07:41:18;7.30;99.90
42833;DHT22;64089;51.478;5.692;2023-02-12T07:43:45;7.30;99.90
42833;DHT22;64089;51.478;5.692;2023-02-12T07:46:13;7.30;99.90
42833;DHT22;64089;51.478;5.692;2023-02-12T07:48:41;7.30;99.90
42833;DHT22;64089;51.478;5.692;2023-02-12T07:51:09;7.30;99.90
42833;DHT22;64089;51.478;5.692;2023-02-12T07:53:35;7.30;99.90
42833;DHT22;64089;51.478;5.692;2023-02-12T07:56:08;7.30;99.90
42833;DHT22;64089;51.478;5.692;2023-02-12T07:58:34;7.40;99.90
42833;DHT22;64089;51.478;5.692;2023-02-12T08:01:09;7.40;99.90
42833;DHT22;64089;51.478;5.692;2023-02-12T08:03:35;7.40;99.90
42833;DHT22;64089;51.478;5.692;2023-02-12T08:06:06;7.40;99.90
42833;DHT22;64089;51.478;5.692;2023-02-12T08:08:32;7.50;99.90
42833;DHT22;64089;51.478;5.692;2023-02-12T08:10:58;7.50;99.90
42833;DHT22;64089;51.478;5.692;2023-02-12T08:13:23;7.50;99.90
42833;DHT22;64089;51.478;5.692;2023-02-12T08:15:49;7.60;99.90
42833;DHT22;64089;51.478;5.692;2023-02-12T08:18:14;7.60;99.90
42833;DHT22;64089;51.478;5.692;2023-02-12T08:20:40;7.70;99.90
42833;DHT22;64089;51.478;5.692;2023-02-12T08:23:05;7.70;99.90
42833;DHT22;64089;51.478;5.692;2023-02-12T08:25:31;7.70;99.90
42833;DHT22;64089;51.478;5.692;2023-02-12T08:27:57;7.70;99.90
42833;DHT22;64089;51.478;5.692;2023-02-12T08:30:22;7.70;99.90
42833;DHT22;64089;51.478;5.692;2023-02-12T08:32:48;7.80;99.90
42833;DHT22;64089;51.478;5.692;2023-02-12T08:35:14;7.80;99.90
42833;DHT22;64089;51.478;5.692;2023-02-12T08:37:39;7.80;99.90
42833;DHT22;64089;51.478;5.692;2023-02-12T08:40:09;7.90;99.90
42833;DHT22;64089;51.478;5.692;2023-02-12T08:42:35;7.90;99.90
42833;DHT22;64089;51.478;5.692;2023-02-12T08:45:00;8.00;99.90
42833;DHT22;64089;51.478;5.692;2023-02-12T08:47:26;8.10;99.90
42833;DHT22;64089;51.478;5.692;2023-02-12T08:49:51;8.10;99.90
42833;DHT22;64089;51.478;5.692;2023-02-12T08:52:17;8.10;99.90
42833;DHT22;64089;51.478;5.692;2023-02-12T08:54:43;8.10;99.90
42833;DHT22;64089;51.478;5.692;2023-02-12T08:57:09;8.10;99.90
42833;DHT22;64089;51.478;5.692;2023-02-12T08:59:34;8.20;99.90
42833;DHT22;64089;51.478;5.692;2023-02-12T09:02:00;8.20;99.90
42833;DHT22;64089;51.478;5.692;2023-02-12T09:04:28;8.30;99.90
42833;DHT22;64089;51.478;5.692;2023-02-12T09:06:54;8.40;99.90
42833;DHT22;64089;51.478;5.692;2023-02-12T09:09:20;8.30;99.90
42833;DHT22;64089;51.478;5.692;2023-02-12T09:11:47;8.40;99.90
42833;DHT22;64089;51.478;5.692;2023-02-12T09:14:15;8.40;99.90
42833;DHT22;64089;51.478;5.692;2023-02-12T09:16:41;8.50;99.90
42833;DHT22;64089;51.478;5.692;2023-02-12T09:19:09;8.50;99.90
42833;DHT22;64089;51.478;5.692;2023-02-12T09:21:35;8.60;99.90
42833;DHT22;64089;51.478;5.692;2023-02-12T09:24:01;8.60;99.90
42833;DHT22;64089;51.478;5.692;2023-02-12T09:26:28;8.60;99.90
42833;DHT22;64089;51.478;5.692;2023-02-12T09:28:54;8.60;99.90
42833;DHT22;64089;51.478;5.692;2023-02-12T09:31:26;8.60;99.90
42833;DHT22;64089;51.478;5.692;2023-02-12T09:33:57;8.60;99.90
42833;DHT22;64089;51.478;5.692;2023-02-12T09:36:24;8.70;99.90
42833;DHT22;64089;51.478;5.692;2023-02-12T09:38:50;8.70;99.90
42833;DHT22;64089;51.478;5.692;2023-02-12T09:49:32;8.80;99.90
42833;DHT22;64089;51.478;5.692;2023-02-12T09:52:03;8.90;99.90
42833;DHT22;64089;51.478;5.692;2023-02-12T09:54:37;9.00;99.90
42833;DHT22;64089;51.478;5.692;2023-02-12T09:57:11;9.00;99.90
42833;DHT22;64089;51.478;5.692;2023-02-12T09:59:45;9.10;99.90
42833;DHT22;64089;51.478;5.692;2023-02-12T10:02:13;9.20;99.90
42833;DHT22;64089;51.478;5.692;2023-02-12T10:04:41;9.30;99.90
42833;DHT22;64089;51.478;5.692;2023-02-12T10:13:07;9.50;99.90
42833;DHT22;64089;51.478;5.692;2023-02-12T10:15:42;9.60;99.90
42833;DHT22;64089;51.478;5.692;2023-02-12T10:22:00;9.60;99.90
42833;DHT22;64089;51.478;5.692;2023-02-12T10:27:13;9.70;99.90
42833;DHT22;64089;51.478;5.692;2023-02-12T10:29:42;9.70;99.90
42833;DHT22;64089;51.478;5.692;2023-02-12T10:32:24;9.80;99.90
42833;DHT22;64089;51.478;5.692;2023-02-12T10:34:52;9.90;99.90
42833;DHT22;64089;51.478;5.692;2023-02-12T10:40:28;10.10;99.90
42833;DHT22;64089;51.478;5.692;2023-02-12T10:42:57;10.20;99.90
42833;DHT22;64089;51.478;5.692;2023-02-12T10:48:19;10.20;99.90
42833;DHT22;64089;51.478;5.692;2023-02-12T10:53:32;10.10;99.90
42833;DHT22;64089;51.478;5.692;2023-02-12T10:58:59;10.10;99.90
42833;DHT22;64089;51.478;5.692;2023-02-12T11:01:32;10.10;99.90
42833;DHT22;64089;51.478;5.692;2023-02-12T11:03:59;10.00;99.90
42833;DHT22;64089;51.478;5.692;2023-02-12T11:06:27;10.00;99.90
42833;DHT22;64089;51.478;5.692;2023-02-12T11:08:54;10.00;99.90
42833;DHT22;64089;51.478;5.692;2023-02-12T11:11:30;9.90;99.90
42833;DHT22;64089;51.478;5.692;2023-02-12T11:14:27;9.90;99.90
42833;DHT22;64089;51.478;5.692;2023-02-12T11:16:58;9.90;99.90
42833;DHT22;64089;51.478;5.692;2023-02-12T11:19:30;10.00;99.90
42833;DHT22;64089;51.478;5.692;2023-02-12T11:22:12;10.00;99.90
42833;DHT22;64089;51.478;5.692;2023-02-12T11:24:43;10.10;99.90
42833;DHT22;64089;51.478;5.692;2023-02-12T11:29:44;10.20;99.90
42833;DHT22;64089;51.478;5.692;2023-02-12T11:32:18;10.10;99.90
42833;DHT22;64089;51.478;5.692;2023-02-12T11:37:39;10.10;99.90
42833;DHT22;64089;51.478;5.692;2023-02-12T11:40:15;10.20;99.90
42833;DHT22;64089;51.478;5.692;2023-02-12T11:42:48;10.10;99.90
42833;DHT22;64089;51.478;5.692;2023-02-12T11:45:17;10.10;99.90
42833;DHT22;64089;51.478;5.692;2023-02-12T11:47:44;10.00;99.90
42833;DHT22;64089;51.478;5.692;2023-02-12T11:50:27;10.00;99.90
42833;DHT22;64089;51.478;5.692;2023-02-12T11:52:58;10.00;99.90
42833;DHT22;64089;51.478;5.692;2023-02-12T11:55:28;10.00;99.90
42833;DHT22;64089;51.478;5.692;2023-02-12T11:58:16;10.10;99.90
42833;DHT22;64089;51.478;5.692;2023-02-12T12:00:50;10.10;99.90
42833;DHT22;64089;51.478;5.692;2023-02-12T12:06:45;10.10;99.90
42833;DHT22;64089;51.478;5.692;2023-02-12T12:12:12;10.00;99.90
42833;DHT22;64089;51.478;5.692;2023-02-12T12:21:29;10.10;99.90
42833;DHT22;64089;51.478;5.692;2023-02-12T12:24:02;10.20;99.90
42833;DHT22;64089;51.478;5.692;2023-02-12T12:26:32;10.20;99.90
42833;DHT22;64089;51.478;5.692;2023-02-12T12:29:09;10.20;99.90
42833;DHT22;64089;51.478;5.692;2023-02-12T12:31:38;10.20;99.90
42833;DHT22;64089;51.478;5.692;2023-02-12T12:34:11;10.30;99.90
42833;DHT22;64089;51.478;5.692;2023-02-12T12:36:56;10.30;99.90
42833;DHT22;64089;51.478;5.692;2023-02-12T12:39:57;10.30;99.90
42833;DHT22;64089;51.478;5.692;2023-02-12T12:48:57;10.40;99.90
42833;DHT22;64089;51.478;5.692;2023-02-12T12:57:02;10.40;99.90
42833;DHT22;64089;51.478;5.692;2023-02-12T13:02:48;10.50;99.90
42833;DHT22;64089;51.478;5.692;2023-02-12T13:08:22;10.50;99.90
42833;DHT22;64089;51.478;5.692;2023-02-12T13:10:56;10.50;99.90
42833;DHT22;64089;51.478;5.692;2023-02-12T13:13:42;10.40;99.90
42833;DHT22;64089;51.478;5.692;2023-02-12T13:19:19;10.30;99.90
42833;DHT22;64089;51.478;5.692;2023-02-12T13:22:06;10.10;99.90
42833;DHT22;64089;51.478;5.692;2023-02-12T13:24:49;10.00;99.90
42833;DHT22;64089;51.478;5.692;2023-02-12T13:27:23;9.90;99.90
42833;DHT22;64089;51.478;5.692;2023-02-12T13:30:19;10.00;99.90
42833;DHT22;64089;51.478;5.692;2023-02-12T13:33:21;10.00;99.90
42833;DHT22;64089;51.478;5.692;2023-02-12T13:35:55;10.00;99.90
42833;DHT22;64089;51.478;5.692;2023-02-12T13:38:33;9.80;99.90
42833;DHT22;64089;51.478;5.692;2023-02-12T13:41:06;9.90;99.90
42833;DHT22;64089;51.478;5.692;2023-02-12T13:51:52;9.80;99.90
42833;DHT22;64089;51.478;5.692;2023-02-12T13:54:55;9.70;99.90
42833;DHT22;64089;51.478;5.692;2023-02-12T13:57:21;9.70;99.90
42833;DHT22;64089;51.478;5.692;2023-02-12T13:59:48;9.60;99.90
42833;DHT22;64089;51.478;5.692;2023-02-12T14:04:58;9.60;99.90
42833;DHT22;64089;51.478;5.692;2023-02-12T14:07:43;9.60;99.90
42833;DHT22;64089;51.478;5.692;2023-02-12T14:10:30;9.60;99.90
42833;DHT22;64089;51.478;5.692;2023-02-12T14:15:40;9.60;99.90
42833;DHT22;64089;51.478;5.692;2023-02-12T14:23:53;9.70;99.90
42833;DHT22;64089;51.478;5.692;2023-02-12T14:26:39;9.70;99.90
42833;DHT22;64089;51.478;5.692;2023-02-12T14:29:16;9.60;99.90
42833;DHT22;64089;51.478;5.692;2023-02-12T14:31:45;9.70;99.90
42833;DHT22;64089;51.478;5.692;2023-02-12T14:36:39;10.00;99.90
42833;DHT22;64089;51.478;5.692;2023-02-12T14:41:44;10.10;99.90
42833;DHT22;64089;51.478;5.692;2023-02-12T14:46:53;10.20;99.90
42833;DHT22;64089;51.478;5.692;2023-02-12T14:49:26;10.20;99.90
42833;DHT22;64089;51.478;5.692;2023-02-12T14:54:57;10.30;99.90
42833;DHT22;64089;51.478;5.692;2023-02-12T14:57:32;10.30;99.90
42833;DHT22;64089;51.478;5.692;2023-02-12T15:08:43;10.30;99.90
42833;DHT22;64089;51.478;5.692;2023-02-12T15:14:23;10.30;99.90
42833;DHT22;64089;51.478;5.692;2023-02-12T15:17:07;10.20;99.90
42833;DHT22;64089;51.478;5.692;2023-02-12T15:19:51;10.20;99.90
42833;DHT22;64089;51.478;5.692;2023-02-12T15:22:24;10.20;99.90
42833;DHT22;64089;51.478;5.692;2023-02-12T15:24:52;10.20;99.90
42833;DHT22;64089;51.478;5.692;2023-02-12T15:27:19;10.10;99.90
42833;DHT22;64089;51.478;5.692;2023-02-12T15:29:51;10.10;99.90
42833;DHT22;64089;51.478;5.692;2023-02-12T15:32:27;10.10;99.90
42833;DHT22;64089;51.478;5.692;2023-02-12T15:34:54;10.00;99.90
42833;DHT22;64089;51.478;5.692;2023-02-12T15:37:29;10.00;99.90
42833;DHT22;64089;51.478;5.692;2023-02-12T15:39:59;10.00;99.90
42833;DHT22;64089;51.478;5.692;2023-02-12T15:42:36;10.00;99.90
42833;DHT22;64089;51.478;5.692;2023-02-12T15:47:42;9.90;99.90
42833;DHT22;64089;51.478;5.692;2023-02-12T15:50:15;9.90;99.90
42833;DHT22;64089;51.478;5.692;2023-02-12T15:52:43;9.90;99.90
42833;DHT22;64089;51.478;5.692;2023-02-12T15:55:19;9.80;99.90
42833;DHT22;64089;51.478;5.692;2023-02-12T15:57:53;9.80;99.90
42833;DHT22;64089;51.478;5.692;2023-02-12T16:00:38;9.80;99.90
42833;DHT22;64089;51.478;5.692;2023-02-12T16:03:14;9.80;99.90
42833;DHT22;64089;51.478;5.692;2023-02-12T16:05:43;9.70;99.90
42833;DHT22;64089;51.478;5.692;2023-02-12T16:08:16;9.70;99.90
42833;DHT22;64089;51.478;5.692;2023-02-12T16:10:44;9.70;99.90
42833;DHT22;64089;51.478;5.692;2023-02-12T16:13:16;9.70;99.90
42833;DHT22;64089;51.478;5.692;2023-02-12T16:15:42;9.60;99.90
42833;DHT22;64089;51.478;5.692;2023-02-12T16:18:23;9.60;99.90
42833;DHT22;64089;51.478;5.692;2023-02-12T16:20:49;9.60;99.90
42833;DHT22;64089;51.478;5.692;2023-02-12T16:23:25;9.60;99.90
42833;DHT22;64089;51.478;5.692;2023-02-12T16:25:54;9.50;99.90
42833;DHT22;64089;51.478;5.692;2023-02-12T16:28:27;9.50;99.90
42833;DHT22;64089;51.478;5.692;2023-02-12T16:31:09;9.50;99.90
42833;DHT22;64089;51.478;5.692;2023-02-12T16:33:48;9.50;99.90
42833;DHT22;64089;51.478;5.692;2023-02-12T16:36:25;9.40;99.90
42833;DHT22;64089;51.478;5.692;2023-02-12T16:39:01;9.40;99.90
42833;DHT22;64089;51.478;5.692;2023-02-12T16:41:31;9.40;99.90
42833;DHT22;64089;51.478;5.692;2023-02-12T16:46:28;9.30;99.90
42833;DHT22;64089;51.478;5.692;2023-02-12T16:48:56;9.30;99.90
42833;DHT22;64089;51.478;5.692;2023-02-12T16:51:32;9.20;99.90
42833;DHT22;64089;51.478;5.692;2023-02-12T16:54:03;9.20;99.90
42833;DHT22;64089;51.478;5.692;2023-02-12T16:56:31;9.20;99.90
42833;DHT22;64089;51.478;5.692;2023-02-12T16:59:00;9.20;99.90
42833;DHT22;64089;51.478;5.692;2023-02-12T17:01:31;9.20;99.90
42833;DHT22;64089;51.478;5.692;2023-02-12T17:03:58;9.20;99.90
42833;DHT22;64089;51.478;5.692;2023-02-12T17:06:27;9.20;99.90
42833;DHT22;64089;51.478;5.692;2023-02-12T17:08:53;9.20;99.90
42833;DHT22;64089;51.478;5.692;2023-02-12T17:11:23;9.20;99.90
42833;DHT22;64089;51.478;5.692;2023-02-12T17:13:51;9.20;99.90
42833;DHT22;64089;51.478;5.692;2023-02-12T17:16:17;9.20;99.90
42833;DHT22;64089;51.478;5.692;2023-02-12T17:18:43;9.30;99.90
42833;DHT22;64089;51.478;5.692;2023-02-12T17:21:28;9.40;99.90
42833;DHT22;64089;51.478;5.692;2023-02-12T17:23:53;9.30;99.90
42833;DHT22;64089;51.478;5.692;2023-02-12T17:26:23;9.20;99.90
42833;DHT22;64089;51.478;5.692;2023-02-12T17:28:49;9.10;99.90
42833;DHT22;64089;51.478;5.692;2023-02-12T17:31:15;9.10;99.90
42833;DHT22;64089;51.478;5.692;2023-02-12T17:33:40;9.00;99.90
42833;DHT22;64089;51.478;5.692;2023-02-12T17:36:06;9.00;99.90
42833;DHT22;64089;51.478;5.692;2023-02-12T17:38:32;8.90;99.90
42833;DHT22;64089;51.478;5.692;2023-02-12T17:40:58;9.00;99.90
42833;DHT22;64089;51.478;5.692;2023-02-12T17:43:23;8.90;99.90
42833;DHT22;64089;51.478;5.692;2023-02-12T17:45:49;8.90;99.90
42833;DHT22;64089;51.478;5.692;2023-02-12T17:48:15;8.90;99.90
42833;DHT22;64089;51.478;5.692;2023-02-12T17:50:42;8.90;99.90
42833;DHT22;64089;51.478;5.692;2023-02-12T17:53:09;8.90;99.90
42833;DHT22;64089;51.478;5.692;2023-02-12T17:55:39;8.80;99.90
42833;DHT22;64089;51.478;5.692;2023-02-12T17:58:08;8.80;99.90
42833;DHT22;64089;51.478;5.692;2023-02-12T18:00:33;8.80;99.90
42833;DHT22;64089;51.478;5.692;2023-02-12T18:02:59;8.80;99.90
42833;DHT22;64089;51.478;5.692;2023-02-12T18:05:24;8.80;99.90
42833;DHT22;64089;51.478;5.692;2023-02-12T18:07:50;8.90;99.90
42833;DHT22;64089;51.478;5.692;2023-02-12T18:10:15;9.00;99.90
42833;DHT22;64089;51.478;5.692;2023-02-12T18:12:41;9.00;99.90
42833;DHT22;64089;51.478;5.692;2023-02-12T18:15:08;9.10;99.90
42833;DHT22;64089;51.478;5.692;2023-02-12T18:17:35;9.00;99.90
42833;DHT22;64089;51.478;5.692;2023-02-12T18:20:01;8.90;99.90
42833;DHT22;64089;51.478;5.692;2023-02-12T18:22:27;8.80;99.90
42833;DHT22;64089;51.478;5.692;2023-02-12T18:24:52;8.80;99.90
42833;DHT22;64089;51.478;5.692;2023-02-12T18:27:22;8.80;99.90
42833;DHT22;64089;51.478;5.692;2023-02-12T18:29:48;8.70;99.90
42833;DHT22;64089;51.478;5.692;2023-02-12T18:32:14;8.70;99.90
42833;DHT22;64089;51.478;5.692;2023-02-12T18:34:41;8.70;99.90
42833;DHT22;64089;51.478;5.692;2023-02-12T18:37:09;8.70;99.90
42833;DHT22;64089;51.478;5.692;2023-02-12T18:39:35;8.70;99.90
42833;DHT22;64089;51.478;5.692;2023-02-12T18:42:00;8.70;99.90
42833;DHT22;64089;51.478;5.692;2023-02-12T18:44:26;8.70;99.90